CheckWX is a tool to help pilots better visualize weather data.  It is not intended as a substitute for an official pre-flight weather briefing.

15:29:03 UTC

KIER METAR
Natchitoches Regional Airport
Natchitoches, Louisiana, USA
Current

14 mins ago

KIER 261515Z AUTO 21005KT 10SM SCT023 28/22 A3014 RMK AO2 T02750223
Observed
May-26 @ 15:15 UTC
Wind
  • 210° at 5 KTS
Visibility
10 SM
Flight Rules
VFR
Cloud Levels
  • Scattered at 2,300' AGL
Temperature
28°C / 82°F
Dewpoint
22°C / 72°F
Heat Index
30°C / 86°F
Humidity
70%
Altimeter
30.14" Hg
Pressure
1020.62 hPa
Previous

34 mins ago

KIER 261455Z AUTO 20004KT 10SM SCT019 27/22 A3014 RMK AO2 T02710217
Observed
May-26 @ 14:55 UTC
Wind
  • 200° at 4 KTS
Visibility
10 SM
Flight Rules
VFR
Cloud Levels
  • Scattered at 1,900' AGL
Temperature
27°C / 81°F
Dewpoint
22°C / 72°F
Heat Index
29°C / 85°F
Humidity
74%
Altimeter
30.14" Hg
Pressure
1020.62 hPa
Previous

54 mins ago

KIER 261435Z AUTO 19004KT 10SM SCT017 28/22 A3014 RMK AO2 T02750223
Observed
May-26 @ 14:35 UTC
Wind
  • 190° at 4 KTS
Visibility
10 SM
Flight Rules
VFR
Cloud Levels
  • Scattered at 1,700' AGL
Temperature
28°C / 82°F
Dewpoint
22°C / 72°F
Heat Index
30°C / 86°F
Humidity
70%
Altimeter
30.14" Hg
Pressure
1020.62 hPa